Espace membre
Imprimable
Houffalize, 28-30/04/2017, BEL - Roc d'Ardenne
Liste des rapports > Roc d'Ardennes - Classement
Recherche: Page: [1] 2 3
1225 Entrées
 
Les réclamations ne sont plus acceptées, les résultats sont considérés comme définitifs.
Catégorie
PosNrLicenceNomAgeIOCEquipeTempsTkmMoy.RangNomLocalité
Vos photos gr?ce ? Sportograf1.410004272933VAN HOOVELS Kevin32BELMTB TEAM LANGDO2:26:102:34 23.401m1SINT-AMANDSBERG
Vos photos gr?ce ? Sportograf2.209110001336459GADRET John38FRAUSO BRUAY LABUI2:26:432:35 23.312m1BRUAY LABUISSIERE
Vos photos gr?ce ? Sportograf3.209310003038407VAN AELBROECK Michiel31BELHOOT.TODAY2:27:042:35 23.263m1GENT
Vos photos gr?ce ? Sportograf4.48DE BOCK Robby29BELKMC-FRUIT TO GO2:27:052:35 23.251eliMELSELE
Vos photos gr?ce ? Sportograf5.2167BEL19960419LEVECKE Milan21BELBEACHBIKERS VZW2:28:442:37 23.001u23OOSTENDE
Vos photos gr?ce ? Sportograf6.323110015777234YENZY Anthuenis19BELDARE 2B OLYMPIA2:28:492:37 22.982u23DAKNAM
Vos photos gr?ce ? Sportograf7.210010090711DELAET Julien31BELTEAM BIKE4LIFE-2:29:022:37 22.954m1LIMAL
Vos photos gr?ce ? Sportograf8.2173FRA19850110CARTON Ludovic32FRACASSEL VTT2:29:072:37 22.945m1ZEGERSCAPPEL
Vos photos gr?ce ? Sportograf9.2174FRA19921012TRAULET Emeric25FRAUS DOMONT2:30:092:39 22.782eliALBERT
Vos photos gr?ce ? Sportograf10.2155BEL19780614BROEKMANS Arne39BEL2:32:362:41 22.416m1HEUSDEN-ZOLDER
Vos photos gr?ce ? Sportograf11.2169BEL19991106VANECHT Jens18BELDE BEVERCROSSER2:32:362:41 22.411junBEVERLO
Vos photos gr?ce ? Sportograf12.3285BEL19900714PIRLOT Antoine27BELBTWIN RACING TE2:34:262:43 22.153eliOCHAMPS
Vos photos gr?ce ? Sportograf13.214465596HEUSDENS Niels24BELVANOMOBIL MTB C2:36:192:45 21.884eliGEETBETS
Vos photos gr?ce ? Sportograf14.2158BEL19860121PAQUET Francois31BELTEAM SDR BIKE2:41:152:50 21.217m1COURT ST ETIENNE
Vos photos gr?ce ? Sportograf15.2323MAAS Maikel32NLDNEE2:42:042:51 21.108m1RUCPHEN
Vos photos gr?ce ? Sportograf16.2003BARA Paul22BELNOW TRIATHLON T2:42:352:52 21.043u23BLÉHARIES
Vos photos gr?ce ? Sportograf17.17GUILMIN Adrien27BELBIKE4LIFE2:42:382:52 21.035eliETTERBEEK
Vos photos gr?ce ? Sportograf18.21411980084069LETURCQ Geoffrey18FRAAC AMIENOISE2:42:432:52 21.022junNAOURS
Vos photos gr?ce ? Sportograf19.328910007092296BÜTZOW Philipp30LUXVELOSFRËNN GUST2:42:492:52 21.019m1ROESER
Vos photos gr?ce ? Sportograf20.3220100 105 848 05TEMPST Kurt46BELBIKE - INN2:42:512:52 21.001m2LIER
Vos photos gr?ce ? Sportograf21.2165BEL19911129BOISDEQUIN Nicolas26BELMJ CRAZY BIKERS2:43:112:52 20.966eliGOZEE
Vos photos gr?ce ? Sportograf22.2008NOEL Dominique48FRA2:43:142:52 20.952m2THIONVILLE
Vos photos gr?ce ? Sportograf23.21381831102075363VAN VLASSELAER Sven34BELKLEIN BRABANT M2:43:232:52 20.9310m1BAAL
Vos photos gr?ce ? Sportograf24.2319ROOS Patrick35NLD2:44:132:53 20.8311m1ETTEN-LEUR
Vos photos gr?ce ? Sportograf25.209710014984864LATHOUWERS Joey26BELECW2:44:132:53 20.837eliTAVIGNY
Vos photos gr?ce ? Sportograf26.212610052153143KARKLINS Uldis37LVAFRUIT4LONDON2:44:242:54 20.8012m1STAMFORD
Vos photos gr?ce ? Sportograf27.2142410277VONNECHE Didier44BELECW2:44:472:54 20.763m2ANGLEUR
Vos photos gr?ce ? Sportograf28.610010003916MONFORT Jean-Marc50BELCOMITÉ RÉGIONAL2:44:542:54 20.744m2MEMBACH
Vos photos gr?ce ? Sportograf29.21371801026245463VERHEYDEN Joris37BELWTC NIEUWRODE2:44:572:54 20.7413m1SINT-PIETERS-RODE
Vos photos gr?ce ? Sportograf30.21436342RICHARDEAU Arnaud24BELCOMITÉ RÉGIONAL2:45:002:54 20.738eliTEMPLOUX
Vos photos gr?ce ? Sportograf31.2710014744485LHERMITE Emmanuel40FRACCVTT BADONVILL2:45:082:54 20.715m2ESSEY LES NANCY
Vos photos gr?ce ? Sportograf32.329674919VERMEIR Jochem32BELINDIVIDUEEL2:45:132:54 20.7014m1OPWIJK
Vos photos gr?ce ? Sportograf33.2619PYPE Mathias33FRAPEDALE SUIPPASE2:45:252:55 20.6815m1AMBONNAY
Vos photos gr?ce ? Sportograf34.214670472CRIJNS Michiel17BELOMC MTB CLUB OP2:45:462:55 20.633junDIEPENBEEK
Vos photos gr?ce ? Sportograf35.2208BOGAERT Vaast47BEL2:46:042:55 20.606m2WILRIJK
Vos photos gr?ce ? Sportograf36.2678HUMBERT Frédéric38FRALES BAROUDEURS 2:46:172:56 20.5716m1BAR LE DUC
Vos photos gr?ce ? Sportograf37.10BEL19890803HEYMANS Stijn28BELTEL&CO CYCLING 2:46:322:56 20.549eliHERENT
Vos photos gr?ce ? Sportograf38.209810015075194VAN UUM Lars19NLDMBC BAR-END2:46:392:56 20.524u23HARDERWIJK
Vos photos gr?ce ? Sportograf39.2153BEL15041999THIENPONT Sander18BELVANOMOBIL MTB C2:47:142:57 20.454junLOCHRISTI
Vos photos gr?ce ? Sportograf40.2175FRA19941012TAVERNIER Adrien23FRASAINT AMAND LES2:47:262:57 20.4310eliMERCK SAINT LIEVIN
Vos photos gr?ce ? Sportograf41.2154BEL19720819VAN BREMPT Tom45BELSMART CYCLING T2:47:402:57 20.407m2AFFLIGEM
Vos photos gr?ce ? Sportograf42.212510052089384JONES Graham37GBRFRUIT4LONDON2:48:072:57 20.3417m1BASINGSTOKE
Vos photos gr?ce ? Sportograf43.310010170028ROSART Benjamin31BELBIKE4LIFE2:48:092:57 20.3418m1FRASNES-LEZ-GOSSELIES
Vos photos gr?ce ? Sportograf44.3254LEGROS Melvin32BELMJ CRAZY BIKERS2:48:302:58 20.3019m1LANDELIES
Vos photos gr?ce ? Sportograf45.3205GANCE Mathieu27FRA2:49:012:58 20.2411eliROSIÈRES EN SANTERRE
Vos photos gr?ce ? Sportograf46.3234FLOREN Sjakkie36NLD2:49:012:58 20.2420m1ST WILLEBRORD
Vos photos gr?ce ? Sportograf47.2432GAY Yann29FRAVTT SAINT AMAND2:49:262:59 20.1912eliVERCHOCQ
Vos photos gr?ce ? Sportograf48.2019SÉPULT Benoit40BEL2:49:422:59 20.158m2OTTIGNIES
Vos photos gr?ce ? Sportograf49.710014108329DUPUIS Martin38BELTEAMBIKE4LIFE-B2:50:323:00 20.0621m1COURT-SAINT-ETIENNE
Vos photos gr?ce ? Sportograf50.212910055915127DEL DIN Stephane47FRAESCMEAUX2:50:363:00 20.059m2MEAUX
Vos photos gr?ce ? Sportograf51.28BOETENS Matthias26BELPULSO - PREVENT2:51:143:01 19.9713eliDEINZE
Vos photos gr?ce ? Sportograf52.2986DEBRY Romain24BELPOWERMAXX2:51:393:01 19.9314eliSAINT MARD
Vos photos gr?ce ? Sportograf53.210110024397807CARBONNIER Ludovic45FRABAROUDEURS DE L2:51:513:01 19.9010m2BAR LE DUC
Vos photos gr?ce ? Sportograf54.209210002589072DOROGHAZI Gabor40HUNFRUIT4LONDON2:52:123:02 19.8611m2BELVEDERE
Vos photos gr?ce ? Sportograf55.211310028273460PLATZ Pierre22FRATHIONVILLE VTT2:52:353:02 19.825u23TRIEUX
Vos photos gr?ce ? Sportograf56.212010050022476LETELLIER Romain38FRAACMONTIVILLIERS2:54:013:04 19.6522m1MONTIVILLIERS
Vos photos gr?ce ? Sportograf57.2162BEL19890528GUISGAND Kevin28BELMJCRAZYBIKERSTE2:55:143:05 19.5215eliLEVAL
Vos photos gr?ce ? Sportograf58.2538MERMANS Bram32BELBRAM MERMANS2:55:153:05 19.5223m1DESSEL
Vos photos gr?ce ? Sportograf59.214567098GEURS Steven44BELDMC CYCLING TEA2:56:243:06 19.3912m2WATERVLIET
Vos photos gr?ce ? Sportograf60.2160BEL19880802DE CLEYN Dave29BELRS-BIKES RACING2:56:343:06 19.3716eliRANST
Vos photos gr?ce ? Sportograf61.209410008929236VERHEYEN Onno23BELRS-BIKES RACING2:56:353:06 19.3717eliLILLE
Vos photos gr?ce ? Sportograf62.1210015437027BECCO Olivier37FRAHAUT VALLESPIR 2:57:213:07 19.2924m1LLUPIA
Vos photos gr?ce ? Sportograf63.212810054284517GRUNENWALD Gregory38FRAUS THIERVILLE2:57:313:07 19.2725m1NOMENY
Vos photos gr?ce ? Sportograf64.2275DE BAERDEMAEKER Steven36BEL2:58:333:08 19.1526m1EREMBODEGEM
Vos photos gr?ce ? Sportograf65.2276DE BAERDEMAEKER Michaël31BEL2:58:333:08 19.1527m1NINOVE
Vos photos gr?ce ? Sportograf66.910015065696DEDION Dimitri29BELBTWIN RACING TE2:58:393:09 19.1418eliHABAY 6723
Vos photos gr?ce ? Sportograf67.3237OTTO Sébastien39BELSEBSEBONTOUR2:59:273:09 19.0628m1HOUFFALIZE
Vos photos gr?ce ? Sportograf68.2321THOMASSEN Stefan40BEL2:59:573:10 19.0113m2MAASMECHELEN
Vos photos gr?ce ? Sportograf69.2004MOMMEN Joel52BELRIDLEY DIBONO3:00:193:10 18.9714m2GEER
Vos photos gr?ce ? Sportograf70.2002HARTKOPF Daniel35BELNOW TRIATHLON T3:00:413:11 18.9329m1SPRIMONT
Vos photos gr?ce ? Sportograf71.2151BE19720527BOISDEQUIN Frederic45BELMJ CRAZY BIKERS3:00:473:11 18.9215m2MARCINELLE
Vos photos gr?ce ? Sportograf72.3258BUCK Nick31BEL3:01:113:11 18.8830m1VORSELAAR
Vos photos gr?ce ? Sportograf73.3224100 535 359 00STRUYFS Nick35BELBIKE-INN TEAM H3:01:293:12 18.8531m1POEDERLEE
Vos photos gr?ce ? Sportograf74.3157MAKKEN Makken22NLDC&P BUITENSPORT3:01:413:12 18.836u23HOUFFALIZE
Vos photos gr?ce ? Sportograf75.2427COBERT Grégory36FRAVC EU3:03:153:13 18.6632m1MAISNIERES
Vos photos gr?ce ? Sportograf76.2528HEYNEN Martin41LUX3:03:153:13 18.6616m2BECH
Vos photos gr?ce ? Sportograf77.2706FOIN Antony31FRA3:03:213:13 18.6533m1NANTEUIL LA FORET
Vos photos gr?ce ? Sportograf78.2618LEROY Jonathan32FRARCVO3:03:213:13 18.6534m1CUMIERES
Vos photos gr?ce ? Sportograf79.2942HUBSCH Thierry39LUX3:03:233:14 18.6535m1CANACH
Vos photos gr?ce ? Sportograf80.3118MARIOTTE Joffrey17FRAVTTCHAUMONTAIS 3:03:433:14 18.625junLAVILLE AUX BOIS
Vos photos gr?ce ? Sportograf81.51MARTIN Baptiste26BEL3:04:223:15 18.5519eliWAREMME
Vos photos gr?ce ? Sportograf82.326010055292913VAN LANGENHOVE Danny40BELMTB GENT RACING3:04:243:15 18.5517m2GENTBRUGGE
Vos photos gr?ce ? Sportograf83.2152BEL 19931002CUSSE Corentin24BELXCBIKERSHARVENG3:04:333:15 18.5320eliHARVENG
Vos photos gr?ce ? Sportograf84.3298BERREVOETS Tom40BEL3:05:153:15 18.4618m2DUDZELE
Vos photos gr?ce ? Sportograf85.42LEYS Wannes20BELMTB-GENT RACING3:05:303:16 18.447u23LANDEGEM
Vos photos gr?ce ? Sportograf86.58VELLEMANS Jens23BEL3:05:303:16 18.4421eliKESTER
Vos photos gr?ce ? Sportograf87.2509GASTINEAU Antoine32BELBIKE4LIFE BMC3:05:313:16 18.4436m1FOREST
Vos photos gr?ce ? Sportograf88.2193NELEN Lars29NLD3:05:453:16 18.4122eliBREDA
Vos photos gr?ce ? Sportograf89.3253VAN GORP Bart35BEL3:06:013:16 18.3937m1NIJLEN
Vos photos gr?ce ? Sportograf90.2411QUATRESOLS Vincent31FRA3:06:073:16 18.3838m1LUDES
Vos photos gr?ce ? Sportograf91.211210028254060ROUSSEL Maxence18FRATEAM OISE ORGAN3:06:083:16 18.376junVILLERS SUR BONNIÈRES
Vos photos gr?ce ? Sportograf92.2157BEL19841005PAQUET Vincent33BELTEAM SDR BIKE3:06:433:17 18.3239m1COURT ST ETIENNE
Vos photos gr?ce ? Sportograf93.210910027512214LEJEUNE Benoit32FRATEAM OISE ORGAN3:06:583:17 18.2940m1HAUDIVILLERS
Vos photos gr?ce ? Sportograf94.2597LECOCQ Antoine36FRAVTT PONT SUR SA3:07:203:18 18.2641m1LIMONT FONTAINE
Vos photos gr?ce ? Sportograf95.2297HEYLEN Tim28BELDE BOSKLIEVERS3:07:333:18 18.2423eliNOORDERWIJK
Vos photos gr?ce ? Sportograf96.26GOUSSEAU Romain31FRA3:07:363:18 18.2342m1THIERS SUR THÈVE
Vos photos gr?ce ? Sportograf97.2159BEL19870620NEUT Jerome30BELVERTT MTB CLUB3:07:403:18 18.2243m1TILLY
Vos photos gr?ce ? Sportograf98.3096VANSPRINGEL Mathias30BELB-CYCLE3:07:453:18 18.2244m1WESTERLO
Vos photos gr?ce ? Sportograf99.31RAES Patrick51BEL3:07:463:18 18.2119m2ROESELARE
Vos photos gr?ce ? Sportograf100.2168BEL19980707COURTOIS Arthur19BELTEAM SUPERBIKER3:08:023:18 18.198u23SARS-LA-BUISSIÈRE
Vos photos gr?ce ? Sportograf101.2256GOMES SILVA Arnaud32FRA3:08:503:19 18.1145m1LES PETITES LOGES
Vos photos gr?ce ? Sportograf102.2197VERMEERSCH Pierre38BELLES EPONGES3:08:553:19 18.1046m1ERNONHEID
Vos photos gr?ce ? Sportograf103.2633DRYEPONDT Peter48BEL3:09:023:19 18.0920m2DUDZELE
Vos photos gr?ce ? Sportograf104.212110050587100GEENTJENS Rudi62BELBIKE-INN3:09:083:20 18.0821m2HERENTALS
Vos photos gr?ce ? Sportograf105.2844WULLEPUT Nicolas41FRATEAM BIBICHE3:09:093:20 18.0822m2FLEURBAIX
Vos photos gr?ce ? Sportograf106.2001JAMART Guillaume32BELBBIKES TRI TEAM3:09:143:20 18.0747m1TILFF
Vos photos gr?ce ? Sportograf107.2164BEL19900626VIAENE David27BEL3:09:233:20 18.0624eliGENT
Vos photos gr?ce ? Sportograf108.2331OPSTEYN Yannick34BEL3:09:263:20 18.0548m1NEERHAREN
Vos photos gr?ce ? Sportograf109.2212GRÜN Pierre-Paul48LUX3:09:563:20 18.0123m2BOFFERDANGE
Vos photos gr?ce ? Sportograf110.2244GIRARD Jean-François52FRAWTL3:10:003:20 18.0024m2LAXOU
Vos photos gr?ce ? Sportograf111.209910022991408VAN KRIMPEN Jarno44NLDBIKESHOP EGMOND3:10:303:21 17.9525m2GROOT AMMERS
Vos photos gr?ce ? Sportograf112.3052ROY Simon39FRATEAM VTT ATTICH3:10:513:21 17.9249m1ENNEVELIN
Vos photos gr?ce ? Sportograf113.2725BRUYNEEL Emmanuel42BEL3:10:533:21 17.9226m2ELSEGEM
Vos photos gr?ce ? Sportograf114.2156BEL19790802WALLAERT Giovanni38BEL3:11:233:22 17.8750m1KNESSELARE
Vos photos gr?ce ? Sportograf115.2325RAMON Luc56BEL3:11:463:22 17.8327m2WILRIJK
Vos photos gr?ce ? Sportograf116.1FHESSENS Saskia46BELMTB GENT3:11:533:22 17.821damLANDEGEM
Vos photos gr?ce ? Sportograf117.2433ROOBROEK Bart52BEL3:11:543:22 17.8228m2MENEN
Vos photos gr?ce ? Sportograf118.21401960203025RENARD Mathieu30FRAVTT SENLISIEN3:12:453:23 17.7451m1SENLIS
Vos photos gr?ce ? Sportograf119.209510011616742THIERY Jordan30FRATHIONVILLE VTT3:12:463:23 17.7452m1ILLANGE
Vos photos gr?ce ? Sportograf120.3110VERDING Luc46BEL3:12:483:23 17.7429m2HASSELT
Vos photos gr?ce ? Sportograf121.21361588041101HOUOT Matthieu26FRAVÉLOCE CLUB SPI3:12:573:24 17.7325eliBENNEY
Vos photos gr?ce ? Sportograf122.2172FRA19840221FERREIRA DE SOUSA Sébastien33FRAVTT PONTOIS3:13:043:24 17.7153m1FEIGNIES
Vos photos gr?ce ? Sportograf123.3212VERHOEVEN Gert Denise23BEL3:13:053:24 17.7126eliLAARNE
Vos photos gr?ce ? Sportograf124.2218LOPES Bruno24PRTBIKE4LIFE/BMC3:13:283:24 17.6827eliBRAINE L ALLEUD
Vos photos gr?ce ? Sportograf125.2904HEYMANS Seppe35BELTEL & CO CYCLIN3:13:293:24 17.6854m1BERTEM
Vos photos gr?ce ? Sportograf126.2024610354BERNARD Alexandre42FRACOMITÉ RÉGIONAL3:13:323:24 17.6730m2BLANMONT
Vos photos gr?ce ? Sportograf127.2010RASSAERTS Olivier27BEL3:13:373:24 17.6628eliWESPELAAR
Vos photos gr?ce ? Sportograf128.3222COPPIN Grégory Jacques27BEL3:14:243:25 17.5929eliPHILIPPEVILLE
Vos photos gr?ce ? Sportograf129.2854FILAINE Cedric35FRARCVO3:14:433:25 17.5755m1FROMENTIERES
Vos photos gr?ce ? Sportograf130.20VERAERT Flor56BELBBC3:14:553:26 17.5531m2PULDERBOS
Vos photos gr?ce ? Sportograf131.2899TABAKA Fabrice49FRARCVO3:15:043:26 17.5332m2OIRY
Vos photos gr?ce ? Sportograf132.2327RANSQUIN Kevin30FRAVTT PONTOIS3:15:143:26 17.5256m1SARS-POTERIES
Vos photos gr?ce ? Sportograf133.2493PENNERATH Maxime25FRAUCCF3:15:193:26 17.5130eliCREHANGE
Vos photos gr?ce ? Sportograf134.2250TONNEAUX Jerome39BELFLY3:15:423:26 17.4857m1EMINES
Vos photos gr?ce ? Sportograf135.2217PIRET Steve38BELFLY3:15:433:27 17.4758m1SUARLÉE
Vos photos gr?ce ? Sportograf136.2415LOUIS Julien37FRALUCEY3:15:453:27 17.4759m1BICQUELEY
Vos photos gr?ce ? Sportograf137.325610002601301FHORMES-RAVENSTIJN Reza50NLDMTB LICHT VERZE3:16:023:27 17.452damWIJCHEN
Vos photos gr?ce ? Sportograf138.32900BEAUDEUX Fabrice50FRAASA TINQUEUX3:16:043:27 17.4433m2TRESLON
Vos photos gr?ce ? Sportograf139.3210HEYMANS Bram37BELTEL & CO CYCLIN3:16:213:27 17.4260m1MELDERT
Vos photos gr?ce ? Sportograf140.3129PAERMENTIER Nicolas32BELTEAM BIKE 4 LIF3:16:483:28 17.3861m1NIVELLES
Vos photos gr?ce ? Sportograf141.2909HULEUX Ludovic28FRA3:16:513:28 17.3731eliVADENCOURT
Vos photos gr?ce ? Sportograf142.2176GER19771013HILBURGER Ingo40DEU3:16:513:28 17.3734m2HERZOGENRATH
Vos photos gr?ce ? Sportograf143.3288LEFEBVRE Frederic46FRAASA TINQEUX3:17:283:28 17.3235m2PARGNY LE REIMS
Vos photos gr?ce ? Sportograf144.2199DOGNE Sebastien45BELLES EPONGES3:18:093:29 17.2636m2CHEVRON
Vos photos gr?ce ? Sportograf145.2670LE NINIVEN Michael42FRAECUREUILS VTT3:18:263:29 17.2437m2LEUBRINGHEN
Vos photos gr?ce ? Sportograf146.2171FRA19740323CLAISER Romuald43FRAVTT CLUB VIESSM3:19:233:30 17.1538m2CRÉHANGE
Vos photos gr?ce ? Sportograf147.210510025979816HERTEL Laurent47FRAVTT CLUB VIESSM3:19:273:30 17.1539m2PORCELETTE
Vos photos gr?ce ? Sportograf148.212210050653481BERND Marcel23FRAVTT CLUB VIESSM3:19:373:31 17.1332eliHERNY
Vos photos gr?ce ? Sportograf149.2707JUPRELLE Gilles42BELAMSQ3:19:403:31 17.1340m2LESSY
Vos photos gr?ce ? Sportograf150.2524MALHERBE Franz46BEL3:19:423:31 17.1341m2AYWAILLE
Vos photos gr?ce ? Sportograf151.2363VANCOPPENOLLE Tijl39BELTEAM 783:19:463:31 17.1262m1MAARKEDAL
Vos photos gr?ce ? Sportograf152.43VANDENBROUCKE Arne23BEL3:19:473:31 17.1233eliBEVEREN LEIE
Vos photos gr?ce ? Sportograf153.2177NRW710732EBNER Markus51DEURSC ROTRUNNER3:19:563:31 17.1142m2NETTERSHEIM
Vos photos gr?ce ? Sportograf154.210810026893434OLIVEIRA Frederic38FRAC3F VTT3:20:083:31 17.0963m1BOUST
Vos photos gr?ce ? Sportograf155.2933MAKELBERGE Wim39BEL3:20:393:32 17.0564m1DUDZELE
Vos photos gr?ce ? Sportograf156.214796135FERRETTI Lenny15BELTEAMBIKE4LIFE-B3:20:563:32 17.021cadTHIEU
Vos photos gr?ce ? Sportograf157.3226BOULADOU Eric43FRAACTB BELFORT3:20:583:32 17.0243m2BADEVEL
Vos photos gr?ce ? Sportograf158.2320VAN DEN HEUVEL Milko40NLD3:21:043:32 17.0144m2PRINSENBEEK
Vos photos gr?ce ? Sportograf159.2185BRUNET Luc47FRA3:21:043:32 17.0145m2SAINT LAURENT BLANGY
Vos photos gr?ce ? Sportograf160.2195VIOLLAND Nicolas39FRARED ARRAS CHOUF3:21:043:32 17.0165m1ARRAS
Vos photos gr?ce ? Sportograf161.2394LECONTE Christophe45FRAVC EUDOIS763:21:103:32 17.0046m2AIGNEVILLE
Vos photos gr?ce ? Sportograf162.2659LE BUSSY Quentin27FRA3:21:313:33 16.9734eliPRUNAY
Vos photos gr?ce ? Sportograf163.3075ROSSIUS Martin20BELLDJ3:21:323:33 16.979u23BLEGNY
Vos photos gr?ce ? Sportograf164.2062FKOENIG Sandrine38FRAASCL VTT AMANVI3:21:353:33 16.973damANCY DORNOT
Vos photos gr?ce ? Sportograf165.2868HONTIS Roel36BEL3:22:023:33 16.9366m1MEEUWEN-GRUITRODE
Vos photos gr?ce ? Sportograf166.2853DARNANVILLE Pascal54FRABARENTIN CYCLO 3:22:033:33 16.9347m2PAVILLY
Vos photos gr?ce ? Sportograf167.2191RAMPEL Valentin17BELCCBELLEFONTAINE3:22:263:34 16.907junLAHAGE
Vos photos gr?ce ? Sportograf168.2903TABAKA Rémy27FRARCVO3:22:263:34 16.9035eliEPERNAY
Vos photos gr?ce ? Sportograf169.34THORÉ Floris22BEL3:22:363:34 16.8810u23RENINGELST
Vos photos gr?ce ? Sportograf170.21WILMSSEN Patrik56BELBBC3:22:463:34 16.8748m2ZANDHOVEN
Vos photos gr?ce ? Sportograf171.2794MARTIN Bruno47FRA3:22:473:34 16.8749m2VILLERS AUX BOIS
Vos photos gr?ce ? Sportograf172.2824MOREAU Hubert45FRARANDO CLUB VTT3:23:193:35 16.8250m2HAUTVILLERS
Vos photos gr?ce ? Sportograf173.2951JAHNKE Jean-Marc52FRA3:23:333:35 16.8051m2YUTZ
Vos photos gr?ce ? Sportograf174.2466GIOT Raphael36BELBASTOGNE VTT3:23:493:35 16.7867m1BERTOGNE
Vos photos gr?ce ? Sportograf175.2203BALTUS Raphael26BEL3:23:523:35 16.7836eliETTERBEEK
Vos photos gr?ce ? Sportograf176.210310024931105LECOMTE Régis47FRAVTT CLUB VIESSM3:24:123:35 16.7552m2FAULQUEMONT
Vos photos gr?ce ? Sportograf177.2522PHILIPPE Frederic40FRA3:24:123:35 16.7553m2CLAIRFONTAINE
Vos photos gr?ce ? Sportograf178.21301059121050LALOUX Floriant16BELUC SOLREZIENNE3:24:133:35 16.752cadBEAURIEUX
Vos photos gr?ce ? Sportograf179.212310051929942PEREIRA Daniel43LUXSAF ZÉISSENG3:24:203:36 16.7454m2FENTANGE
Vos photos gr?ce ? Sportograf180.2449PROFIT Francois52FRA3:24:233:36 16.7355m2ST OUEN L'AUMONE
Vos photos gr?ce ? Sportograf181.2058DE MAN Jonas35BEL3:24:333:36 16.7268m1BORNEM
Vos photos gr?ce ? Sportograf182.2009VAN HOOF Dave40BEL3:24:593:36 16.6856m2VEERLE
Vos photos gr?ce ? Sportograf183.3084MEZIER Albert54FRAVC HETTANGE GRA3:25:003:36 16.6857m2OTTANGE
Vos photos gr?ce ? Sportograf184.2442TAVERNIER Alexandre25FRA3:25:063:36 16.6737eliBOEGE
Vos photos gr?ce ? Sportograf185.2945RAYMAKERS Jense30BEL3:25:083:36 16.6769m1LUMMEN
Vos photos gr?ce ? Sportograf186.2929DE PLECKER Sam25AFG3:25:183:37 16.6638eliHAALTERT
Vos photos gr?ce ? Sportograf187.3257BUCK Cornelis54BELBIKE-INN3:25:293:37 16.6458m2GROBBENDONK
Vos photos gr?ce ? Sportograf188.2864BADIA Dorian24FRACANNER 3 FRONTI3:25:313:37 16.6439eliMONDELANGE
Vos photos gr?ce ? Sportograf189.33VAN DER WOERD Heike44NLD3:25:423:37 16.6359m2AMSTELVEEN
Vos photos gr?ce ? Sportograf190.2436VANDEWALLE Frank38BEL3:25:453:37 16.6270m1RENINGELST
Vos photos gr?ce ? Sportograf191.2328TARON Joffrey28FRA3:26:293:38 16.5640eliBOULAY-MOSELLE
Vos photos gr?ce ? Sportograf192.3264MASSET Ludovic38FRADIGESTSCIENCE3:26:483:38 16.5471m1WASQUEHAL
Vos photos gr?ce ? Sportograf193.2266HEYLEN Marc59BEL3:26:593:38 16.5260m2HERENTALS
Vos photos gr?ce ? Sportograf194.205210006121993FNOEL Alexandra43FRAVC HETTANGE GRA3:27:103:39 16.514damTHIONVILLE
Vos photos gr?ce ? Sportograf195.2202DE WIT Thijs26BELDE EDDY'S3:27:193:39 16.5041eliBAAL
Vos photos gr?ce ? Sportograf196.211510028331256FADHEL Yesid30FRAVTT CLUB VIESSM3:27:243:39 16.4972m1FAULQUEMONT
Vos photos gr?ce ? Sportograf197.211610028331357TIERRY Aurélien36FRAVTT CLUB VIESSM3:27:253:39 16.4973m1GUESSELING HEMERING
Vos photos gr?ce ? Sportograf198.2265VAN HERCK Jef25BEL3:27:423:39 16.4742eliLEUVEN
Vos photos gr?ce ? Sportograf199.210410025705182VALENTIN Francois32BELCOMITÉ RÉGIONAL3:27:533:39 16.4574m1FLÉRON
Vos photos gr?ce ? Sportograf200.3030DUBOIS Julien40FRA9@THE33:27:563:39 16.4561m2TRESSIN
Vos photos gr?ce ? Sportograf201.3262BERNS Christian53FRA3:27:583:39 16.4562m2ENTRANGE
Vos photos gr?ce ? Sportograf202.2192HAUTERIVE Loic31FRATEAM PYRAMIDES 3:28:003:39 16.4475m1WINGLES
Vos photos gr?ce ? Sportograf203.3134BONHOMME Jean Luc50FRA3:28:103:40 16.4363m2FOUG
Vos photos gr?ce ? Sportograf204.2777POIROT Michel56FRAVTT DU TOULOIS3:28:103:40 16.4364m2BICQUELEY
Vos photos gr?ce ? Sportograf205.2401VANTOMME Dave37BELMTB PRESTIGE3:28:133:40 16.4376m1BREDENE
Vos photos gr?ce ? Sportograf206.2011DE BONT Glenn40BEL3:28:213:40 16.4165m2GENT
Vos photos gr?ce ? Sportograf207.3139DE KOKER Dirk45BEL3:28:453:40 16.3866m2VLIERZELE
Vos photos gr?ce ? Sportograf208.3025BESSEMS Bart41NLDNEARS PELOTON3:30:073:42 16.2867m2NEER
Vos photos gr?ce ? Sportograf209.4612BEKE Frederik40BEL3:30:273:42 16.2568m2WOLVERTEM
Vos photos gr?ce ? Sportograf210.3274GUILLAUME Fabrice43BEL3:30:453:42 16.2369m2BASTOGNE
Vos photos gr?ce ? Sportograf211.2271SEINE Grégory40FRAASL VARREDDES3:30:473:42 16.2370m2NANTEUIL LES MEAUX
Vos photos gr?ce ? Sportograf212.2179CRAPOULET Adrien30FRA3:30:573:43 16.2177m1DUNKERQUE
Vos photos gr?ce ? Sportograf213.2375TYS Benoit33BEL3:31:163:43 16.1978m1MALONNE
Vos photos gr?ce ? Sportograf214.2537DELIEGE Hugues36FRA3:31:293:43 16.1779m1VITRY EN ARTOIS
Vos photos gr?ce ? Sportograf215.2905FESTOR Jason17FRA3:32:033:44 16.138junFREYMING MERLEBACH
Vos photos gr?ce ? Sportograf216.3109LEBAILLY Simon31BEL3:32:053:44 16.1380m1BAUFFE
Vos photos gr?ce ? Sportograf217.3246FRANÇOIS Jean Michel47BEL3:32:113:44 16.1271m2VILLERS-LE-TEMPLE
Vos photos gr?ce ? Sportograf218.2229BERBEN Stef26BEL3:32:153:44 16.1143eliBOCHOLT
Vos photos gr?ce ? Sportograf219.3148VAN EESTER Steven39BELKTT3:32:393:44 16.0881m1BERCHEM
Vos photos gr?ce ? Sportograf220.3080DELHAYE Arnaud27BEL3:32:423:44 16.0844eliBELLAIRE
Vos photos gr?ce ? Sportograf221.2684POPPE Dirk46BEL3:32:473:44 16.0772m2ZELE
Vos photos gr?ce ? Sportograf222.3229HIERHOLZER Stephan45DEURSF FROHE FELGE3:32:473:44 16.0773m2KÖLN
Vos photos gr?ce ? Sportograf223.2731HUYS Francis37BEL3:33:133:45 16.0482m1DUDZELE
Vos photos gr?ce ? Sportograf224.2873DUVAL Vincent20FRARCVO3:33:163:45 16.0411u23MAREUIL LE PORT
Vos photos gr?ce ? Sportograf225.2863ROBERT Lucas20FRARCVO3:33:173:45 16.0412u23LEUVRIGNY
Vos photos gr?ce ? Sportograf226.210710026522410SAKER Nicolas21FRAVTT CLUB VIESSM3:33:193:45 16.0313u23LONGEILLE LES SAINT AVOLD
Vos photos gr?ce ? Sportograf227.2605ANDRE Olivier39BEL3:33:333:45 16.0283m1FLAWINNE
Vos photos gr?ce ? Sportograf228.3279SEGHEZZI Yann41FRA3:33:383:45 16.0174m2ROSNAY
Vos photos gr?ce ? Sportograf229.2520HUSQUINET Sebastien42BEL3:33:453:45 16.0075m2ESNEUX
Vos photos gr?ce ? Sportograf230.2243LEPLANQUOIS Gauthier35FRAVTT ERRANTS3:33:473:46 16.0084m1CORBIE
Vos photos gr?ce ? Sportograf231.60CALLEBAUT Bert36BEL3:34:103:46 15.9785m1VLEZENBEEK
Vos photos gr?ce ? Sportograf232.2364BUREZ Jonathan39BEL3:34:193:46 15.9686m1GENT
Vos photos gr?ce ? Sportograf233.2336SANTINI Michel47FRA3:34:243:46 15.9576m2MARS LA TOUR
Vos photos gr?ce ? Sportograf234.2742LEFRANT Jerome31BEL/3:34:303:46 15.9487m1MALONNE
Vos photos gr?ce ? Sportograf235.2381FLORANGE Patrick46FRAVTT SA3:34:343:46 15.9477m2KOENIGSMACKER
Vos photos gr?ce ? Sportograf236.2227DECKERS Ward26BEL3:34:353:46 15.9445eliKURINGEN
Vos photos gr?ce ? Sportograf237.2237GUYOT Fabien31FRATRI CLUB BOULOG3:34:363:46 15.9488m1WIMEREUX
Vos photos gr?ce ? Sportograf238.2354PERROT Philippe58FRACC ETUPES3:34:423:46 15.9378m2DAMPIERRE LES BOIS
Vos photos gr?ce ? Sportograf239.2066FLE FUR Emilie44FRACYCLO NOUZONVIL3:34:563:47 15.915damJOIGNY SUR MEUSE
Vos photos gr?ce ? Sportograf240.2308BARTUCCIO Domenico48FRAS.V.P3:35:233:47 15.8879m2DRANCY
Vos photos gr?ce ? Sportograf241.2993ARTISIEN Logan26BELNOUNOUS BIKERS3:35:283:47 15.8746eliGRANDRIEU
Vos photos gr?ce ? Sportograf242.2869GHYSENS Dimitri40BEL3:35:363:47 15.8680m2BRAKEL
Vos photos gr?ce ? Sportograf243.2830DE OLIVEIRA Ludovic33FRARANDO CLUB VTT 3:35:523:48 15.8489m1VILLE EN SELVE
Vos photos gr?ce ? Sportograf244.3137CNUDDE Bert30BEL3:36:003:48 15.8390m1MACHELEN
Vos photos gr?ce ? Sportograf245.2934THUILLIER Laurent52FRA3:36:013:48 15.8381m2SAINT MICHEL
Vos photos gr?ce ? Sportograf246.3072MINIQUE Gaëtan28BELMJCYCLES3:36:103:48 15.8247eliTHUILLIES
Vos photos gr?ce ? Sportograf247.15SCHELFHOUT Chris51BEL3:36:163:48 15.8282m2TERALFENE
Vos photos gr?ce ? Sportograf248.2582DE BILLOËZ Quentin28BEL3:36:193:48 15.8148eliTHIMOUGIES
Vos photos gr?ce ? Sportograf249.2560TREGUIER Laurent48FRARCVO3:36:273:48 15.8083m2FLAVIGNY
Vos photos gr?ce ? Sportograf250.3079GOFFIN Denis36BELCYCLONE BIKERS3:36:283:48 15.8091m1BOUFFIOULX
Vos photos gr?ce ? Sportograf251.2061FVEREECKE Sarah41BELMTB LADIES3:36:303:48 15.806damWESTERLO
Vos photos gr?ce ? Sportograf252.2357BEYENS Jan47BELMTB BOSKLIEVERS3:36:303:48 15.8084m2OLEN
Vos photos gr?ce ? Sportograf253.3276FGEUDENS Hanne32BEL3:36:453:49 15.787damLEERBEEK
Vos photos gr?ce ? Sportograf254.2252DE BRUYNE Jelle36BELVWB/OOST-VLAAND3:37:003:49 15.7692m1BEVEREN-WAAS
Vos photos gr?ce ? Sportograf255.2737JENNES Benjamin34BELENERGY TRI3:37:223:49 15.7393m1CLERMONT
Vos photos gr?ce ? Sportograf256.2983REYMANN Louis21FRA3:37:223:49 15.7314u23ROCROI
Vos photos gr?ce ? Sportograf257.2247LINDEN Herman60BEL3:37:473:50 15.7085m2HERENTALS
Vos photos gr?ce ? Sportograf258.2674IZARD Lionel51FRARCVO3:37:563:50 15.6986m2CUMIERES
Vos photos gr?ce ? Sportograf259.211010027771383SCHMIT Emmanuel52FRAVTT CLUB VIESSM3:37:583:50 15.6987m2FLETRANGE
Vos photos gr?ce ? Sportograf260.3034DEL DIN Hugo18FRALES TRITONS MEL3:38:173:50 15.679junMEAUX
Vos photos gr?ce ? Sportograf261.3039LOPPE Nicolas31BEL3:38:293:50 15.6594m1ST SERVAIS
Vos photos gr?ce ? Sportograf262.2523CREVITS Thomas29BELPLOEGLOOS3:38:303:50 15.6549eliROESELARE
Vos photos gr?ce ? Sportograf263.2025RIEMSLAGH Gianni38BEL3:38:323:51 15.6595m1BORNEM
Vos photos gr?ce ? Sportograf264.47CHRISTIAENS Stijn34BEL3:38:323:51 15.6596m1BORNEM
Vos photos gr?ce ? Sportograf265.2825HUVELLE Benjamin29FRAVTTPONTOIS3:38:463:51 15.6350eliPONT SUR SAMBRE
Vos photos gr?ce ? Sportograf266.2393CHRISTMANN Serge40LUX3:38:503:51 15.6388m2SCHIFFLANGE
Vos photos gr?ce ? Sportograf267.2627PRUVOT Guillaume35FRA3:38:593:51 15.6297m1VILLERS AUX ERABLES
Vos photos gr?ce ? Sportograf268.2326VERHEYEN Guy45BEL3:39:103:51 15.6189m2MAASMECHELEN
Vos photos gr?ce ? Sportograf269.2348GOYVAERT William34BEL3:39:223:51 15.5998m1HULSHOUT
Vos photos gr?ce ? Sportograf270.18DE RIJK Glenn24NLD3:39:293:52 15.5851eliSINT WILLEBRORD
Vos photos gr?ce ? Sportograf271.2353JAUMOTTE Benjamin43BEL3:39:333:52 15.5890m2COMINES
Vos photos gr?ce ? Sportograf272.1310028269117ILTIS Charles-Victor28FRAAVANT GARDE LA 3:39:393:52 15.5752eliPORTBAIL
Vos photos gr?ce ? Sportograf273.2294METZ Jean-Marc48FRA3:39:503:52 15.5691m2DURRENBACH
Vos photos gr?ce ? Sportograf274.2224SORET Pascal44FRAUV FOURMIES3:40:023:52 15.5492m2HAUTMONT
Vos photos gr?ce ? Sportograf275.2182ARAB Jonathan32FRAJONATHANARAB3@M3:40:033:52 15.5499m1SAINT REMY DU NORD
Vos photos gr?ce ? Sportograf276.2885VERMEULEN Jeremy33FRA3:40:133:52 15.53100m1STEENWERCK
Vos photos gr?ce ? Sportograf277.2704MATTE Bastien27FRA3:40:153:52 15.5353eliSAINT POL SUR TERNOISE
Vos photos gr?ce ? Sportograf278.2768OSSELIN Alexandre31FRARETZ BIKE CLUB3:40:233:52 15.52101m1HAUTEFONTAINE
Vos photos gr?ce ? Sportograf279.2513CLAUDEL Remi23FRA3:40:323:53 15.5154eliCROTENAY
Vos photos gr?ce ? Sportograf280.2545OVIS Pascal43FRA3:40:443:53 15.4993m2SOLGNE
Vos photos gr?ce ? Sportograf281.2187BRASSART Sylvain48FRAUV FOURMIES3:41:153:53 15.4694m2FERRIERE LA GRANDE
Vos photos gr?ce ? Sportograf282.2637MILLET Fabrice48FRAVTT PONTOIS3:41:333:54 15.4495m2BEAURIEUX
Vos photos gr?ce ? Sportograf283.2677SURGELOOSE Glenn28BEL3:41:333:54 15.4455eliJUPRELLE
Vos photos gr?ce ? Sportograf284.3028DESPREAUX Jeremy38FRA9 @ THE TREE3:41:403:54 15.43102m1ANSTAING
Vos photos gr?ce ? Sportograf285.2303WAMPACH Benjamin41BELCYCLING TEAM MO3:42:013:54 15.4096m2LONTZEN
Vos photos gr?ce ? Sportograf286.2636DUSSERT Fabien30FRA3:42:233:55 15.38103m1SAINT EGREVE
Vos photos gr?ce ? Sportograf287.2060FWAUTERS Birgit32BELETZA3:42:273:55 15.388damNOSSEGEM
Vos photos gr?ce ? Sportograf288.3123RIVENEZ Michael40FRA3:42:443:55 15.3697m2OUTREAU
Vos photos gr?ce ? Sportograf289.2076FGAHERY Clarisse30FRAAC CHAMPAGNOLAI3:42:453:55 15.359damCHAMPAGNOLE
Vos photos gr?ce ? Sportograf290.2178BEL19941220MONARD Jean-Yves23BELPASSIONCYCLESTE3:42:503:55 15.3556eliMORIALMÉ
Vos photos gr?ce ? Sportograf291.2514GERARD Stephane44FRA3:42:503:55 15.3598m2SECOURT
Vos photos gr?ce ? Sportograf292.3141SCHOUWEILER Laurent47BEL3:43:113:55 15.3299m2FRATIN
Vos photos gr?ce ? Sportograf293.2071FBALDO Laurence42FRA3:43:183:56 15.3210damAMANVILLERS
Vos photos gr?ce ? Sportograf294.208606220249574LEGRAND Julien29FRAAMICALE LAIQUE 3:43:193:56 15.3257eliMONCHY LE PREUX
Vos photos gr?ce ? Sportograf295.208506204944530LEGRAND Claude58FRAAMICALE LAIQUE 3:43:193:56 15.31100m2MONCHY LE PREUX
Vos photos gr?ce ? Sportograf296.2463DEFROIDMONT Didier50BELVTT AUBEL3:43:213:56 15.31101m2OUPEYE
Vos photos gr?ce ? Sportograf297.3077LAURENT Frédéric28BEL3:43:243:56 15.3158eliCOURT-SAINT-ETIENNE
Vos photos gr?ce ? Sportograf298.2970POUILLE Manuel31FRAVTT BEUVRY3:43:373:56 15.29104m1ESSARS
Vos photos gr?ce ? Sportograf299.1110026450264PUECHBERTY Philippe54FRAVC BEAUCHAMP3:43:393:56 15.29102m2BRY SUR MARNE
Vos photos gr?ce ? Sportograf300.2503RENOUF Sebastien43FRABLAIREAUX3:43:423:56 15.29103m2LOUVIGNY
Vos photos gr?ce ? Sportograf301.3247RENARD Frederic44BEL3:43:473:56 15.28104m2WAREMME
Vos photos gr?ce ? Sportograf302.2753LAIGRE Didier57FRAPOMPIER DE VIRE3:44:133:57 15.25105m2VAUDRY
Vos photos gr?ce ? Sportograf303.2420ENGRAND Yannick43FRA3:44:343:57 15.23106m2NOISSEVILLE
Vos photos gr?ce ? Sportograf304.4605BAETE Filip38BEL3:44:343:57 15.23105m1MELLE
Vos photos gr?ce ? Sportograf305.2789DURIGNEUX Justin24BEL3:44:343:57 15.2359eliBEAURAING
Vos photos gr?ce ? Sportograf306.2784BASILE Rosen23BEL/3:44:363:57 15.2360eliMARTELANGE
Vos photos gr?ce ? Sportograf307.2206SCHUSTER Claude46LUXGHOST RIDER3:44:393:57 15.22107m2PÉTANGE
Vos photos gr?ce ? Sportograf308.2166BEL19920409TREFOIS Pol25BELSUPERBIKERS3:44:413:57 15.2261eliBARBENCON
Vos photos gr?ce ? Sportograf309.3024FARAÜS Sébastien32FRAA.S AUATINTIENN3:44:473:57 15.21106m1LOIVRE
Vos photos gr?ce ? Sportograf310.2572HALATYN Nicolas38FRA3:44:493:57 15.21107m1HEM
Vos photos gr?ce ? Sportograf311.3056ANDRE Anthony34FRA3:44:543:57 15.21108m1FROIDESTREES
Vos photos gr?ce ? Sportograf312.21351557166008DABENOC Guillaume46FRAASCL VTT AMANVI3:44:563:57 15.20108m2AMANVILLERS
Vos photos gr?ce ? Sportograf313.35ROCHE--CHEVALIER Julien22FRALES FÊLÉS DE CO3:45:173:58 15.1815u23PONT NOYELLES
Vos photos gr?ce ? Sportograf314.2464BRONE Éric48BELVTT AUBEL3:45:323:58 15.16109m2HERMEE
Vos photos gr?ce ? Sportograf315.2517LESNE Olivier45FRAVTT CLUB ST-AMA3:45:323:58 15.16110m2SAINT-PYTHON
Vos photos gr?ce ? Sportograf316.3245BEL19670215/725BORSU Aubin50BEL3:45:433:58 15.15111m2BAAL
Vos photos gr?ce ? Sportograf317.2535LONAY Alain52BEL3:45:443:58 15.15112m2OUFFET
Vos photos gr?ce ? Sportograf318.2231BODSON Frederic36BEL3:45:453:58 15.15109m1ZOERSEL
Vos photos gr?ce ? Sportograf319.3294KIEFFER Serge49LUX3:45:513:58 15.14113m2PEPPANGE
Vos photos gr?ce ? Sportograf320.2454GOURNAY Carl24FRA3:45:523:58 15.1462eliLEDERZEELE
Vos photos gr?ce ? Sportograf321.3248MISSON Patrick28BEL3:45:543:58 15.1463eli4053
Vos photos gr?ce ? Sportograf322.2723BERNARD Michael35FRAVTT BEUVRY3:45:563:58 15.14110m1CHOCQUES
Vos photos gr?ce ? Sportograf323.2809HEEREN Kevin34BEL3:46:013:58 15.13111m1STEMBERT
Vos photos gr?ce ? Sportograf324.2016DE WEGHE Sam30BEL3:46:033:58 15.13112m1PEPINGEN
Vos photos gr?ce ? Sportograf325.2776LUXEMBOURG Daniel56FRAVTT BLÉNOD3:46:043:58 15.13114m2BLÉNOD LES PONY A MOUSSON
Vos photos gr?ce ? Sportograf326.2814WESSELS Jan-Willem51NLD3:46:083:59 15.12115m2WIJCHEN
Vos photos gr?ce ? Sportograf327.2322DODEMONT Vincent50BEL3:46:203:59 15.11116m2DALHEM
Vos photos gr?ce ? Sportograf328.2953MISSLER Jean-Christophe47FRACYCLO CLUB LOIS3:46:323:59 15.10117m2FORBACH
Vos photos gr?ce ? Sportograf329.2886STOFFEL Gilles41LUX3:46:373:59 15.09118m2STEINSEL
Vos photos gr?ce ? Sportograf330.325510005551919FBEUMER Mandy41NLDSPECIAL CYCLING3:46:383:59 15.0911damNIJMEGEN
Vos photos gr?ce ? Sportograf331.2710BLERIOT Mathieu26FRACOURSE A PIED B3:46:533:59 15.0764eliBEAUVAIS
Vos photos gr?ce ? Sportograf332.2541DAVID Stéphane39FRA3:47:054:00 15.06113m1LAON
Vos photos gr?ce ? Sportograf333.510004733277MEYNAERTS Beny52BEL4 BIKES SPECIAL3:47:144:00 15.05119m2AARSCHOT
Vos photos gr?ce ? Sportograf334.201710009241959FLAMMERTYN Fien36BELINT. TRIALTEAM3:47:204:00 15.0412damAALTER
Vos photos gr?ce ? Sportograf335.3086RESELLE Franck47FRAAS VTT GAUCHY3:47:324:00 15.03120m202100 - ST QUENTIN
Vos photos gr?ce ? Sportograf336.3102MASSON Rudy39FRAAS VTT GAUCHY3:47:324:00 15.03114m1HARLY
Vos photos gr?ce ? Sportograf337.2732BUSIER Thierry Busier42FRAVTT BLENOD3:47:364:00 15.03121m2REMBERCOURT SUR MAD
Vos photos gr?ce ? Sportograf338.3228FJANSSEN Tamara39NLD3:47:374:00 15.0313damHOENSBROEK
Vos photos gr?ce ? Sportograf339.32781820513029775NAUMANN Andy35BELFUJIMEDISTAMTBT3:47:404:00 15.02115m1NEERHAREN
Vos photos gr?ce ? Sportograf340.3018NOËL Tony30FRADECATHLON VERVI3:47:504:00 15.01116m1LIEGE
Vos photos gr?ce ? Sportograf341.2755BAÏOLET Maxime28BELSHARKS TRIATHLO3:47:524:00 15.0165eliSELOIGNES
Vos photos gr?ce ? Sportograf342.2765TAMINIAUX Francois-Xavier28BELCHIMAY COUVIN S3:47:524:00 15.0166eliSAMPONT
Vos photos gr?ce ? Sportograf343.2751CHANTEUX Julien36BELSHARKS TRIATHLO3:47:534:00 15.01117m1MOMIGNIES
Vos photos gr?ce ? Sportograf344.3206SCHMITT Vincent39FRA3:48:064:01 14.99118m1SAINT AVOLD
Vos photos gr?ce ? Sportograf345.2304LARIVÉ Benoit42FRA3:48:124:01 14.99122m2LOEUILLY
Vos photos gr?ce ? Sportograf346.2233MERTENS DE WILMARS Matthieu34BEL3:48:174:01 14.98119m1ZOERSEL
Vos photos gr?ce ? Sportograf347.2893BACQUET Florian28FRACYCLO CLUB DE C3:48:294:01 14.9767eliCROISILLES
Vos photos gr?ce ? Sportograf348.2714RENARD Marc31BEL3:48:374:01 14.96120m1HOGNOUL
Vos photos gr?ce ? Sportograf349.2502ROUPSY Hugo27FRA3:49:204:02 14.9168eliCHIGNY LES ROSES
Vos photos gr?ce ? Sportograf350.2534DUCHESNE Michael32BEL3:49:244:02 14.91121m1OUFFET
Vos photos gr?ce ? Sportograf351.50JAMIE Vanhollebeke22BEL3:49:264:02 14.9116u23PITTEM
Vos photos gr?ce ? Sportograf352.3105VAN DER CRUYSSEN Tom39BEL3:49:374:02 14.89122m1OOSTAKKER
Vos photos gr?ce ? Sportograf353.2423GEORGES Christian49FRAVS2M3:49:384:02 14.89123m2PLAPPEVILLE
Vos photos gr?ce ? Sportograf354.2273RAUX Emmanuel45FRALA LONGUEVILLE3:49:424:02 14.89124m2LA LONGUEVILLE
Vos photos gr?ce ? Sportograf355.3227LIMBOURG Yves Kurt50BEL3:50:114:03 14.86125m2BASTOGNE
Vos photos gr?ce ? Sportograf356.2196BERTOUIL Hugues37BEL3:50:134:03 14.86123m1ERNONHEID
Vos photos gr?ce ? Sportograf357.2671LEDEZ Marc30FRAECL3:50:234:03 14.84124m1OUTREAU
Vos photos gr?ce ? Sportograf358.2669DEBOVE Olivier40FRAMARQUISE CLUB T3:50:254:03 14.84126m2LEUBRINGHEN
Vos photos gr?ce ? Sportograf359.2835VILLE Didier49FRA3:50:424:03 14.82127m2LA GORGUE
Vos photos gr?ce ? Sportograf360.2399MARTIN Loïc36FRAFR MAISNIÈRES3:50:434:03 14.82125m1PERNOIS
Vos photos gr?ce ? Sportograf361.2163BEL19890604LIGNIAN Germain28BELRED BIKERS3:50:494:03 14.8269eliBASTOGNE
Vos photos gr?ce ? Sportograf362.2134BOURY Simon24BEL3:51:014:04 14.8070eliWAREGEM
Vos photos gr?ce ? Sportograf363.210610026262631LISIECKI Frédéric46FRAVTT CLUB VIESSM3:51:154:04 14.79128m2PONTPIERRE
Vos photos gr?ce ? Sportograf364.3203VINCENT Stéphane45FRA3:51:264:04 14.78129m2PERRIGNY
Vos photos gr?ce ? Sportograf365.2959LECOUSTRE Sébastien25FRAOPAL RIDER3:51:344:04 14.7771eliCALAIS
Vos photos gr?ce ? Sportograf366.2481LAMARRE Frederick34BEL3:51:454:04 14.76126m1BURDINNE
Vos photos gr?ce ? Sportograf367.2782PEERE Bart38BEL3:51:504:05 14.75127m1DUDZELE
Vos photos gr?ce ? Sportograf368.3149STOCK Alexander32BEL3:52:014:05 14.74128m1GROBBENDONK
Vos photos gr?ce ? Sportograf369.2313ROB Roland42LUX3:52:064:05 14.74130m2BISSEN
Vos photos gr?ce ? Sportograf370.2400DEPAUW Xavier44BEL3:52:104:05 14.73131m2RIJMENAM
Vos photos gr?ce ? Sportograf371.2705LAURENT Sébastien42FRARCVO AVENAY3:52:124:05 14.73132m2CRAMANT
Vos photos gr?ce ? Sportograf372.2978THELIER Ludovic48FRACOMPAGNONS DE L3:52:264:05 14.71133m2BERTHEN
Vos photos gr?ce ? Sportograf373.3078VANKEERBERGHEN Fabian55BEL3:52:284:05 14.71134m2DION VALMONT
Vos photos gr?ce ? Sportograf374.2299JANSEN Edward28BELDE BOSKLIEVERS3:52:334:05 14.7172eliHERENTALS
Vos photos gr?ce ? Sportograf375.2987BULTOT Nicolas30BELDECATHLON WAVRE3:52:344:05 14.71129m1VILLERS LA VILLE
Vos photos gr?ce ? Sportograf376.2461DICKENS Wim32BELBOSKNOTSERS3:52:454:05 14.69130m1ARENDONK
Vos photos gr?ce ? Sportograf377.2795PARYS Sigert34BEL3:52:574:06 14.68131m1ZOERSEL
Vos photos gr?ce ? Sportograf378.21321059914029DUMONT Frederic53FRAX2POP3:53:214:06 14.66135m2HOUPLIN-ANCOISNE
Vos photos gr?ce ? Sportograf379.2691ROZAND Vivien34FRA3:53:214:06 14.66132m1FOUR
Vos photos gr?ce ? Sportograf380.3008MORTAIGNIE Jurgen43BEL3:53:244:06 14.65136m2LICHTERVELDE
Vos photos gr?ce ? Sportograf381.2023ASSELBERGHS Alexandre49BEL3:53:244:06 14.65137m2SCHILDE
Vos photos gr?ce ? Sportograf382.2829GAUTHRIN Frédéric52FRAAUCUN3:53:344:06 14.64138m2LORGIES
Vos photos gr?ce ? Sportograf383.320210003948082FMETER Ilona39NLD9TH WAVE AND BE3:53:404:06 14.6414damEERBEEK
Vos photos gr?ce ? Sportograf384.3243BIET Joël50BELFCWB3:53:424:06 14.63139m2LIEGE
Vos photos gr?ce ? Sportograf385.2915COULON Gilles45FRAVTT BLÉNOD3:53:534:07 14.62140m2MONTAUVILLE
Vos photos gr?ce ? Sportograf386.2557MATHIEU Raphaël42BEL3:53:564:07 14.62141m2ESCHENTZWILLER
Vos photos gr?ce ? Sportograf387.2079FCEYHAN YILMAZ Ozlem36NLDMBC DE NOORDBIK3:53:584:07 14.6215damHAARLEM
Vos photos gr?ce ? Sportograf388.2587GAILLOT Mathieu29FRARCVO3:54:054:07 14.6173eliDAMERY
Vos photos gr?ce ? Sportograf389.2924PARISOT Marc53FRAVÉLO CLUB VERNY3:54:094:07 14.61142m2PORT SUR SEILLE
Vos photos gr?ce ? Sportograf390.3299PLAS Rudy56BEL3:54:464:08 14.57143m2MOORSEL
Vos photos gr?ce ? Sportograf391.3300CLAESSENS Andy34BEL3:54:474:08 14.57133m1HAALTERT
Vos photos gr?ce ? Sportograf392.2416BERTOLOTTI Nicolas32FRA3:55:144:08 14.54134m1HOMECOURT
Vos photos gr?ce ? Sportograf393.2272ROUSSELLE Nicolas35FRA3:55:214:08 14.53135m1HEILLY
Vos photos gr?ce ? Sportograf394.2692SCHIFFERINGS Patrick42LUX3:55:274:08 14.53144m2LENNINGEN
Vos photos gr?ce ? Sportograf395.2270MERTENS DE WILMARS Laurent35BEL3:55:314:08 14.52136m1SINT-JOB IN'T GOOR
Vos photos gr?ce ? Sportograf396.2519MARTIN Benoit47FRA9H AU BANC3:55:354:08 14.52145m2EVANS
Vos photos gr?ce ? Sportograf397.2617MOSNIER Frederic46FRA3:55:464:09 14.51146m2VERZY
Vos photos gr?ce ? Sportograf398.2366MORAZIN Thomas28FRAVC AVRANCHES3:55:564:09 14.5074eliFOUGÈRES
Vos photos gr?ce ? Sportograf399.2288BERANGER Jean Bernard34FRA3:55:564:09 14.50137m1MONTAUDIN
Vos photos gr?ce ? Sportograf400.3266CLIUCINICOV Serghei44MDA3:56:044:09 14.49147m2LIEGE
Vos photos gr?ce ? Sportograf401.2988PIERSON Adrien31FRATRITYC3:56:054:09 14.49138m1THIONVILLE
Vos photos gr?ce ? Sportograf402.2073FSCHMITT Angelique38FRA3:56:164:09 14.4816damFREYMING MERLEBACH
Vos photos gr?ce ? Sportograf403.2349PAUWELS Domien29BEL3:56:204:09 14.4775eliAARSCHOT
Vos photos gr?ce ? Sportograf404.3208CREVITS Jeremy38FRA3:56:364:10 14.46139m1FERRIERE LA GRANDE
Vos photos gr?ce ? Sportograf405.2521VAN HAELEN Alain44BELGEEN3:56:484:10 14.44148m2BEERSEL
Vos photos gr?ce ? Sportograf406.2462AUGUSTIN David49BELVTT AUBEL3:56:504:10 14.44149m2AUBEL
Vos photos gr?ce ? Sportograf407.2911FRAYON Alain62FRARCVO3:56:534:10 14.44150m2BOURSAULT
Vos photos gr?ce ? Sportograf408.2329BOTTCHER Laurent38FRA3:57:244:10 14.41140m1DIESEN
Vos photos gr?ce ? Sportograf409.2057FLAEREMANS Isidora55BEL3:57:274:10 14.4017damHERENTALS
Vos photos gr?ce ? Sportograf410.2907ALLARD Romain21FRA3:57:294:10 14.4017u23LIXING-LES-ROUHLING
Vos photos gr?ce ? Sportograf411.2996ETIENNE Jean Pierre57FRAMICHELIN3:57:314:11 14.40151m2DOGNEVILLE
Vos photos gr?ce ? Sportograf412.2921BAUER Christophe49FRAVTT BLENOD3:57:374:11 14.39152m2BLENOD LES PONT À MOUSSON
Vos photos gr?ce ? Sportograf413.2585GOOSSE Thibault20BEL3:57:424:11 14.3918u23HOUFFALIZE
Vos photos gr?ce ? Sportograf414.2444LOUPPE Didier47BELBIKER TEAL 3 TR3:57:464:11 14.38153m2VIRTON
Vos photos gr?ce ? Sportograf415.3204DEJEAN Gilles35FRA3:57:534:11 14.38141m1RAISMES
Vos photos gr?ce ? Sportograf416.2730WILLIAM Thomas51FRA3:58:044:11 14.37154m2GERMAINE
Vos photos gr?ce ? Sportograf417.2729MICKAEL Lalle39FRA3:58:054:11 14.37142m1GERMAINE
Vos photos gr?ce ? Sportograf418.2440BODART Vincent41BEL3:58:234:11 14.35155m2LAMORTEAU
Vos photos gr?ce ? Sportograf419.2054GABRIEL Lionel32BELLES ARADGIS DU 3:58:314:12 14.34143m1LAMORTEAU
Vos photos gr?ce ? Sportograf420.3076METENS Stephane46BELCYCLOTTIGNIES3:58:404:12 14.33156m2RIXENSART
Vos photos gr?ce ? Sportograf421.3091DEVELTER Gregory43FRAVTT SAINT AMAND3:58:414:12 14.33157m2CRESPIN
Vos photos gr?ce ? Sportograf422.2817BRIZAY Thibault27FRA3:58:444:12 14.3376eliST CLAIR DU RHONE
Vos photos gr?ce ? Sportograf423.2923DELEBARRE Jerome35FRAVTT BEUVRY3:58:474:12 14.32144m1BETHUNE
Vos photos gr?ce ? Sportograf424.3281STREIGNARD Jean-Baptiste25BEL3:59:004:12 14.3177eliROCHEFORT
Vos photos gr?ce ? Sportograf425.2089100 490 339 85HAUGLUSTAINE Pierre34BELBIKE DOCTOR3:59:094:12 14.30145m1STEMBERT
Vos photos gr?ce ? Sportograf426.2874HARDY Daniel64FRA3:59:094:12 14.30158m2TAISSY
Vos photos gr?ce ? Sportograf427.3283CAUSSE Stephane45FRA3:59:234:12 14.29159m2PERTHES
Vos photos gr?ce ? Sportograf428.2505GAMARD Sylvain51FRA3:59:254:13 14.29160m2PERTHES
Vos photos gr?ce ? Sportograf429.2506GAMARD-LE POTTIER Robin24FRA3:59:264:13 14.2878eliPERTHES
Vos photos gr?ce ? Sportograf430.2504MENIS Bruno39FRAVÉLO CLUB VOUZI3:59:264:13 14.28146m1TAGNON
Vos photos gr?ce ? Sportograf431.2802PRUVOT Matthieu23FRA3:59:294:13 14.2879eliNANTERRE
Vos photos gr?ce ? Sportograf432.2235STUYCK Filip36BEL3:59:334:13 14.28147m1ZOERSEL
Vos photos gr?ce ? Sportograf433.2053GILSON Didier36BEL3:59:534:13 14.26148m1DOISCHE
Vos photos gr?ce ? Sportograf434.2386LAZEWSKI Antoine34FRA3:59:534:13 14.26149m1LES HÔPITAUX-NEUFS
Vos photos gr?ce ? Sportograf435.2298BRIERS Jef37BELDE BOSKLIEVERS3:59:574:13 14.25150m1MORKHOVEN
Vos photos gr?ce ? Sportograf436.2367LETURCQ Fabrice47FRACUJA BIKE4:00:004:13 14.25161m2NAOURS
Vos photos gr?ce ? Sportograf437.2236MENESES José41LUXMUSELBIKES4:00:124:13 14.24162m2REMICH
Vos photos gr?ce ? Sportograf438.2473ROWART Olivier37BEL4:00:164:13 14.23151m1DOLEMBREUX
Vos photos gr?ce ? Sportograf439.3047MACHADO Manuel40PRT4:00:384:14 14.21163m2ST NOM LA BRETECHE
Vos photos gr?ce ? Sportograf440.2922DEQUIDT Remi31FRACASSEL VTT4:00:404:14 14.21152m1EECKE
Vos photos gr?ce ? Sportograf441.29DE CARVALHO Sylvain25FRASAINT MARTIN D'4:00:404:14 14.2180eliCAMPAGNE
Vos photos gr?ce ? Sportograf442.3004ROUSSEL Olivier45FRA4:00:404:14 14.21164m2RUEIL MALMAISON
Vos photos gr?ce ? Sportograf443.3000HERRIER Pierre51BELBCJ4:00:414:14 14.21165m2BLANDAIN
Vos photos gr?ce ? Sportograf444.3275BLANCKAERT Arnaud39BELBIKE & FRIENDS4:00:474:14 14.20153m1CORENNE
Vos photos gr?ce ? Sportograf445.2859HERREGODTS Romain34BEL4:00:494:14 14.20154m1DINANT
Vos photos gr?ce ? Sportograf446.3067DILLY Thierry45FRA4:00:514:14 14.20166m2AUBEPIERRE
Vos photos gr?ce ? Sportograf447.2748DUFOUR Xavier34BELBIKE AND FRIEND4:01:064:14 14.19155m1CORENNE
Vos photos gr?ce ? Sportograf448.211910048768146SOULET Gilles37FRAVTT CLUB VIESSM4:01:304:15 14.16156m1LIXING LES SAINT AVOLD
Vos photos gr?ce ? Sportograf449.2681DIDOT Jacques61FRA100251630934:01:494:15 14.14167m2FAULQUEMONT
Vos photos gr?ce ? Sportograf450.2807ROHR Jürgen45DEUB-TEAM, EIFEL4:02:104:15 14.12168m2BERNDORF
Vos photos gr?ce ? Sportograf451.3114FRANÇOIS Romain35FRAMTB MONTREUIL S4:02:134:15 14.12157m1BRIMEUX
Vos photos gr?ce ? Sportograf452.2078FVERGOUWEN Linda57BEL4:02:274:16 14.1118damKALMTHOUT
Vos photos gr?ce ? Sportograf453.2258VISSERS Ronnie43BEL4:02:484:16 14.09169m2BORNEM
Vos photos gr?ce ? Sportograf454.3138BOHEN Gregory40BEL4:02:544:16 14.08170m2MONTIGNY-LE-TILLEUL
Vos photos gr?ce ? Sportograf455.2510CUCHEVAL Rémi20FRAPIHEM VTT4:02:574:16 14.0819u23CAMPAGNE LES WARDRECQUES
Vos photos gr?ce ? Sportograf456.2315DELABRE Jacques55FRA4:03:074:16 14.07171m2CAUDRY
Vos photos gr?ce ? Sportograf457.2598HENAUT Pascal51FRARCVO4:03:184:17 14.06172m2DIZY
Vos photos gr?ce ? Sportograf458.3054TOULEMONDE Gaetan39FRAVTT ATTICHES4:03:334:17 14.04158m1VILLENEUVE D'ASCQ
Vos photos gr?ce ? Sportograf459.2796URBES Sebastien39FRA4:03:374:17 14.04159m1AIGNY
Vos photos gr?ce ? Sportograf460.52EX Johan43BEL4:03:594:17 14.02173m2KESSEL-LO
Vos photos gr?ce ? Sportograf461.2639DINAULT Julien35FRAZIFOUN'S CHAMBL4:04:004:17 14.02160m160430 - SILLY TILLARD
Vos photos gr?ce ? Sportograf462.2088095_95058515LEGAGNOUX Thierry46FRAASS.CYCLISTE MA4:04:304:18 13.99174m2PARIS
Vos photos gr?ce ? Sportograf463.3143DUMAY Arnaud34BEL4:04:424:18 13.98161m1CERFONTAINE
Vos photos gr?ce ? Sportograf464.2757MORIN Julien28FRAVCB VIRE4:04:464:18 13.9781eliVIRE
Vos photos gr?ce ? Sportograf465.2360DE NONANCOURT Nicolas40FRA4:04:504:18 13.97175m2LOUPMONT
Vos photos gr?ce ? Sportograf466.2508SAISON Nicolas39FRA4:04:514:18 13.97162m1LABOURSE
Vos photos gr?ce ? Sportograf467.3263KLEIN Daniel49FRA4:04:524:18 13.97176m2HETTANGE-GRANDE
Vos photos gr?ce ? Sportograf468.2540DUTERNE Cyrille44FRA4:04:524:18 13.97177m2VERZENAY
Vos photos gr?ce ? Sportograf469.2344CROUZILLE Pierre34FRA4:04:554:18 13.96163m1MARBACHE
Vos photos gr?ce ? Sportograf470.2593MEREAUX Luc39FRA4:04:554:18 13.96164m1VERZENAY
Vos photos gr?ce ? Sportograf471.2600VANDENBERGH Bart44BELVANDENBERGHBART4:04:554:18 13.96178m2MOL
Vos photos gr?ce ? Sportograf472.2623SERRUYS Maximilien28BELBCJ4:05:094:19 13.9582eliNÉCHIN
Vos photos gr?ce ? Sportograf473.2995RIMSKY KORSAKOFF Julien34FRA4:05:114:19 13.95165m1FAUCOUCOURT
Vos photos gr?ce ? Sportograf474.39PAUWELS Tom37BEL4:05:134:19 13.95166m1BORNEM
Vos photos gr?ce ? Sportograf475.2291BARTHELEMY Jérémy34FRA4:05:284:19 13.93167m1BAVAY
Vos photos gr?ce ? Sportograf476.2316ARENDT Roland36LUXGHOST RIDERS4:05:314:19 13.93168m1LINGER
Vos photos gr?ce ? Sportograf477.3059LEBLANC Nicolas40FRAVTT BEUVRY4:05:384:19 13.92179m2FOUQUEREUIL, FRANCE
Vos photos gr?ce ? Sportograf478.2377JACQUOT Ivan33FRA4:06:034:19 13.90169m1GOLBEY
Vos photos gr?ce ? Sportograf479.41PAUWELS Jan34BEL4:06:114:20 13.89170m1BORNEM
Vos photos gr?ce ? Sportograf480.2150DE JAEGER Luc44BEL4:06:284:20 13.88180m2TILFF
Vos photos gr?ce ? Sportograf481.2494TATON Rodolphe48FRABMXB ROLLER SKA4:07:134:21 13.83181m2FONTAINE MACON
Vos photos gr?ce ? Sportograf482.2661DE BAEDTS Franky51BEL4:07:194:21 13.83182m2MALDEGEM
Vos photos gr?ce ? Sportograf483.2012LOECKX Mike35BEL4:07:194:21 13.83171m1RUISBROEK
Vos photos gr?ce ? Sportograf484.2210CRAHAY Valery44BEL4:07:234:21 13.83183m2VAUX-SUR-SÛRE
Vos photos gr?ce ? Sportograf485.210010023157520LIEBRECHT Jeroen29NLDMBC MIDDEN NEDE4:07:314:21 13.8283eliZEIST
Vos photos gr?ce ? Sportograf486.2920GROSJEAN Cédric29BEL4:07:374:21 13.8184eliANGLEUR
Vos photos gr?ce ? Sportograf487.2867GRALINGER Eric34BEL4:07:374:21 13.81172m1VERVIERS
Vos photos gr?ce ? Sportograf488.2990GROSJEAN Jeremy27BEL4:07:384:21 13.8185eliMONTZEN
Vos photos gr?ce ? Sportograf489.2295LEGRAS Francois30BELFNO64:07:414:21 13.81173m1JALHAY
Vos photos gr?ce ? Sportograf490.2690GORGUET Jean Luc58FRA4:08:014:22 13.79184m2GERMAINE
Vos photos gr?ce ? Sportograf491.2207LEMAIRE Sebastien39BELLES EPONGES4:08:324:22 13.76174m1AYWAILLE
Vos photos gr?ce ? Sportograf492.2640EBBERS Lars36NLDMTB ARNHEM4:08:484:22 13.75175m1ARNHEM
Vos photos gr?ce ? Sportograf493.3038STAPELBROEK Cristian33NLD4:08:524:22 13.74176m1ROGGEL
Vos photos gr?ce ? Sportograf494.19LESUEUR Arnaud38FRAMEAUX CYCLOTOUR4:08:594:23 13.74177m1MEAUX
Vos photos gr?ce ? Sportograf495.2232DE VOS Wim39BEL4:09:344:23 13.70178m1MALLE
Vos photos gr?ce ? Sportograf496.2309GALLO Philippe51BELBIKE4LIFE4:09:424:23 13.70185m2THIEU
Vos photos gr?ce ? Sportograf497.3292JANSEGERS Paul57BEL4:09:444:23 13.70186m2BORNEM
Vos photos gr?ce ? Sportograf498.3293JANSEGERS Gino45BEL4:09:444:23 13.69187m2BORNEM
Vos photos gr?ce ? Sportograf499.3295VERGAUWEN Ivan47BEL4:09:454:23 13.69188m2BORNEM
Vos photos gr?ce ? Sportograf500.2548LIENARD Florent37FRA4:09:454:23 13.69179m1LAMBERSART
DNF: abandon; DSQ: disqualifié; Vitesse en km/h
Page: [1] 2 3